createdAt,value
2019-02-27T00:04:36.399Z,100924.19
2019-02-27T00:10:41.048Z,100911.00
2019-02-27T00:16:45.792Z,100919.38
2019-02-27T00:22:51.557Z,100919.72
2019-02-27T00:28:56.753Z,100907.22
2019-02-27T00:35:06.425Z,100907.87
2019-02-27T00:41:12.043Z,100893.94
2019-02-27T00:47:17.046Z,100890.75
2019-02-27T00:53:21.986Z,100886.30
2019-02-27T00:59:27.168Z,100883.70
2019-02-27T01:05:32.250Z,100877.34
2019-02-27T01:11:36.804Z,100880.31
2019-02-27T01:17:41.441Z,100882.44
2019-02-27T01:23:46.022Z,100875.50
2019-02-27T01:29:51.606Z,100882.59
2019-02-27T01:35:56.410Z,100875.13
2019-02-27T01:42:01.054Z,100855.80
2019-02-27T01:48:08.921Z,100855.16
2019-02-27T01:54:15.005Z,100841.10
2019-02-27T02:00:23.049Z,100842.67
2019-02-27T02:06:25.270Z,100843.47
2019-02-27T02:12:30.968Z,100849.28
2019-02-27T02:18:48.238Z,100852.86
2019-02-27T02:25:12.400Z,100847.71
2019-02-27T02:31:33.357Z,100843.17
2019-02-27T02:38:00.501Z,100835.34
2019-02-27T02:44:46.115Z,100836.10
2019-02-27T02:51:30.160Z,100825.19
2019-02-27T02:57:48.568Z,100809.73
2019-02-27T03:04:33.632Z,100798.26
2019-02-27T03:10:48.855Z,100799.89
2019-02-27T03:17:19.154Z,100787.86
2019-02-27T03:23:31.548Z,100792.22
2019-02-27T03:29:53.870Z,100781.76
2019-02-27T03:36:50.453Z,100776.27
2019-02-27T03:43:21.680Z,100770.25
2019-02-27T03:50:07.391Z,100760.31
2019-02-27T03:56:56.161Z,100757.50
2019-02-27T04:03:08.181Z,100739.15
2019-02-27T04:09:18.591Z,100734.63
2019-02-27T04:15:20.736Z,100737.16
2019-02-27T04:21:26.089Z,100739.91
2019-02-27T04:27:31.333Z,100732.85
2019-02-27T04:33:36.084Z,100737.88
2019-02-27T04:39:40.636Z,100746.02
2019-02-27T04:45:46.775Z,100747.82
2019-02-27T04:51:51.577Z,100742.58
2019-02-27T04:57:56.180Z,100735.44
2019-02-27T05:04:01.447Z,100735.94
2019-02-27T05:10:10.185Z,100737.72
2019-02-27T05:16:14.834Z,100738.77
2019-02-27T05:22:19.633Z,100718.53
2019-02-27T05:28:24.285Z,100718.08
2019-02-27T05:34:29.858Z,100712.97
2019-02-27T05:40:34.520Z,100703.92
2019-02-27T05:46:39.236Z,100699.42
2019-02-27T05:52:48.363Z,100702.98
2019-02-27T05:58:50.453Z,100702.11
2019-02-27T06:04:56.129Z,100702.59
2019-02-27T06:11:01.854Z,100701.09
2019-02-27T06:17:06.435Z,100698.05
2019-02-27T06:23:11.021Z,100689.04
2019-02-27T06:29:15.757Z,100686.11
2019-02-27T06:35:20.407Z,100687.57
2019-02-27T06:41:24.962Z,100687.97
2019-02-27T06:47:30.135Z,100686.60
2019-02-27T06:53:34.847Z,100683.91
2019-02-27T06:59:39.433Z,100686.91
2019-02-27T07:05:45.587Z,100678.09
2019-02-27T07:11:50.477Z,100673.73
2019-02-27T07:17:55.111Z,100669.88
2019-02-27T07:23:59.949Z,100661.00
2019-02-27T07:30:07.450Z,100681.95
2019-02-27T07:36:12.744Z,100687.70
2019-02-27T07:42:17.306Z,100678.98
2019-02-27T07:48:21.877Z,100677.84
2019-02-27T07:54:28.943Z,100681.88
2019-02-27T08:00:33.033Z,100673.05
2019-02-27T08:06:38.423Z,100687.86
2019-02-27T08:12:43.151Z,100678.60
2019-02-27T08:18:47.713Z,100674.13
2019-02-27T08:24:52.321Z,100662.70
2019-02-27T08:30:56.971Z,100653.91
2019-02-27T08:37:01.613Z,100657.64
2019-02-27T08:43:06.214Z,100647.83
2019-02-27T08:49:10.809Z,100639.03
2019-02-27T08:55:21.075Z,100640.51
2019-02-27T09:01:24.558Z,100648.69
2019-02-27T09:07:29.145Z,100642.72
2019-02-27T09:13:33.851Z,100639.93
2019-02-27T09:19:38.430Z,100628.59
2019-02-27T09:25:43.032Z,100628.66
2019-02-27T09:31:50.828Z,100628.21
2019-02-27T09:37:54.025Z,100626.05
2019-02-27T09:44:01.284Z,100613.97
2019-02-27T09:50:06.292Z,100587.33
2019-02-27T09:56:11.692Z,100573.16
2019-02-27T10:02:16.282Z,100573.17
2019-02-27T10:08:20.982Z,100571.59
2019-02-27T10:14:25.568Z,100574.42
2019-02-27T10:20:30.873Z,100564.95
2019-02-27T10:26:35.617Z,100548.98
2019-02-27T10:32:40.259Z,100539.55
2019-02-27T10:38:45.544Z,100544.66
2019-02-27T10:44:50.399Z,100533.84
2019-02-27T10:50:54.952Z,100534.61
2019-02-27T10:56:59.559Z,100514.75
2019-02-27T11:03:04.552Z,100502.58
2019-02-27T11:09:19.460Z,100493.11
2019-02-27T11:15:24.642Z,100480.66
2019-02-27T11:21:29.502Z,100459.29
2019-02-27T11:27:36.385Z,100455.05
2019-02-27T11:33:40.534Z,100441.25
2019-02-27T11:39:45.244Z,100426.84
2019-02-27T11:45:49.889Z,100411.84
2019-02-27T11:51:54.542Z,100393.72
2019-02-27T11:58:04.536Z,100389.05
2019-02-27T12:04:05.844Z,100372.87
2019-02-27T12:10:27.015Z,100371.14
2019-02-27T12:16:33.346Z,100357.48
2019-02-27T12:22:38.104Z,100334.81
2019-02-27T12:28:42.672Z,100320.55
2019-02-27T12:34:47.484Z,100320.03
2019-02-27T12:40:52.065Z,100301.02
2019-02-27T12:46:56.814Z,100291.72
2019-02-27T12:53:01.825Z,100281.77
2019-02-27T12:59:06.391Z,100267.69
2019-02-27T13:05:14.692Z,100251.39
2019-02-27T13:11:19.411Z,100250.19
2019-02-27T13:17:24.157Z,100241.67
2019-02-27T13:23:28.730Z,100236.55
2019-02-27T13:29:33.407Z,100227.88
2019-02-27T13:35:38.292Z,100223.23
2019-02-27T13:41:45.548Z,100203.81
2019-02-27T13:47:49.170Z,100183.72
2019-02-27T13:53:53.772Z,100174.36
2019-02-27T13:59:58.670Z,100162.13
2019-02-27T14:06:06.276Z,100136.91
2019-02-27T14:12:09.796Z,100136.77
2019-02-27T14:18:16.185Z,100125.73
2019-02-27T14:24:21.780Z,100117.41
2019-02-27T14:30:37.019Z,100106.83
2019-02-27T14:36:42.419Z,100098.51
2019-02-27T14:42:48.021Z,100098.97
2019-02-27T14:48:53.046Z,100083.45
2019-02-27T14:55:02.968Z,100083.61
2019-02-27T15:01:05.482Z,100072.67
2019-02-27T15:07:10.077Z,100059.92
2019-02-27T15:13:14.665Z,100059.30
2019-02-27T15:19:19.221Z,100046.04
2019-02-27T15:25:24.041Z,100039.60
2019-02-27T15:31:29.030Z,100034.32
2019-02-27T15:37:37.172Z,100024.26
2019-02-27T15:43:39.979Z,100014.99
2019-02-27T15:49:46.053Z,99998.39
2019-02-27T15:55:50.976Z,99995.12
2019-02-27T16:01:55.605Z,99990.34
2019-02-27T16:08:00.673Z,99984.42
2019-02-27T16:14:09.264Z,99976.52
2019-02-27T16:20:18.165Z,99963.55
2019-02-27T16:26:26.974Z,99963.33
2019-02-27T16:32:30.749Z,99955.55
2019-02-27T16:38:35.306Z,99936.98
2019-02-27T16:44:39.897Z,99934.85
2019-02-27T16:50:45.661Z,99926.84
2019-02-27T16:56:51.040Z,99923.67
2019-02-27T17:02:57.105Z,99919.63
2019-02-27T17:09:02.041Z,99916.52
2019-02-27T17:15:06.942Z,99915.59
2019-02-27T17:21:11.701Z,99908.08
2019-02-27T17:27:16.578Z,99899.23
2019-02-27T17:33:21.328Z,99892.49
2019-02-27T17:39:30.507Z,99886.95
2019-02-27T17:45:34.349Z,99879.20
2019-02-27T17:51:40.447Z,99872.45
2019-02-27T17:57:46.375Z,99867.11
2019-02-27T18:03:51.196Z,99873.47
2019-02-27T18:09:58.379Z,99856.92
2019-02-27T18:16:02.317Z,99850.72
2019-02-27T18:22:06.960Z,99847.90
2019-02-27T18:28:11.730Z,99848.60
2019-02-27T18:34:16.507Z,99838.67
2019-02-27T18:40:21.897Z,99833.31
2019-02-27T18:46:26.521Z,99825.58
2019-02-27T18:52:31.219Z,99810.84
2019-02-27T18:58:35.826Z,99806.62
2019-02-27T19:04:40.367Z,99797.67
2019-02-27T19:10:45.092Z,99787.75
2019-02-27T19:16:52.174Z,99772.89
2019-02-27T19:22:56.095Z,99770.34
2019-02-27T19:29:00.937Z,99770.73
2019-02-27T19:35:06.082Z,99763.13
2019-02-27T19:41:10.782Z,99758.87
2019-02-27T19:47:18.406Z,99748.38
2019-02-27T19:53:21.784Z,99732.33
2019-02-27T19:59:26.533Z,99727.39
2019-02-27T20:05:31.451Z,99708.73
2019-02-27T20:11:40.045Z,99698.89
2019-02-27T20:17:42.683Z,99691.77
2019-02-27T20:23:47.466Z,99688.95
2019-02-27T20:29:52.203Z,99688.03
2019-02-27T20:35:57.075Z,99686.25
2019-02-27T20:42:02.505Z,99681.73
2019-02-27T20:48:07.172Z,99677.11
2019-02-27T20:54:11.805Z,99668.63
2019-02-27T21:00:17.764Z,99656.95
2019-02-27T21:06:22.393Z,99657.47
2019-02-27T21:12:26.967Z,99645.28
2019-02-27T21:18:32.561Z,99631.63
2019-02-27T21:24:40.660Z,99626.95
2019-02-27T21:30:44.377Z,99621.78
2019-02-27T21:36:48.991Z,99628.22
2019-02-27T21:42:53.701Z,99613.84
2019-02-27T21:48:59.316Z,99607.02
2019-02-27T21:55:04.218Z,99592.74
2019-02-27T22:01:08.868Z,99590.55
2019-02-27T22:07:13.485Z,99596.13
2019-02-27T22:13:28.589Z,99582.24
2019-02-27T22:19:24.473Z,99562.76
2019-02-27T22:25:31.095Z,99561.66
2019-02-27T22:31:40.235Z,99567.70
2019-02-27T22:37:42.499Z,99569.60
2019-02-27T22:43:47.083Z,99550.56
2019-02-27T22:49:51.711Z,99548.69
2019-02-27T22:55:56.262Z,99540.12
2019-02-27T23:02:01.835Z,99534.59
2019-02-27T23:08:06.607Z,99526.86
2019-02-27T23:14:11.677Z,99515.34
2019-02-27T23:20:17.454Z,99507.56
2019-02-27T23:26:22.845Z,99510.98
2019-02-27T23:32:28.628Z,99500.09
2019-02-27T23:38:34.768Z,99500.75
2019-02-27T23:44:40.322Z,99502.62
2019-02-27T23:50:45.157Z,99483.63
2019-02-27T23:56:51.818Z,99477.16
